Time;durP1;ratioP1;P1;durP2;ratioP2;P2;SDS_P1;SDS_P2;PMS_P1;PMS_P2;Temp;Humidity;BMP_temperature;BMP_pressure;BME280_temperature;BME280_humidity;BME280_pressure;Samples;Min_cycle;Max_cycle;Signal;HPM_P1;HPM_P2
2021/11/30 00:00:18;;;;;;;;;;;;;;;10.56;61.06;99881.63;5000311;27;127969;-59
2021/11/30 00:02:44;;;;;;;;;;;;;;;10.55;60.67;99885.41;4991827;27;126138;-58
2021/11/30 00:05:10;;;;;;;;;;;;;;;10.55;61.33;99881.94;5002209;27;97656;-67
2021/11/30 00:07:36;;;;;;;;;;;;;;;10.54;61.09;99883.81;4982419;27;128007;-58
2021/11/30 00:12:28;;;;;;;;;;;;;;;10.54;61.10;99886.50;4993807;27;98028;-58
2021/11/30 00:14:55;;;;;;;;;;;;;;;10.55;60.99;99884.63;5001112;27;117635;-59
2021/11/30 00:17:21;;;;;;;;;;;;;;;10.53;60.97;99876.81;5000993;27;98651;-59
2021/11/30 00:19:48;;;;;;;;;;;;;;;10.54;61.21;99883.03;5001337;27;109054;-67
2021/11/30 00:22:15;;;;;;;;;;;;;;;10.53;61.31;99879.53;4994833;27;97788;-68
2021/11/30 00:24:41;;;;;;;;;;;;;;;10.53;61.07;99887.59;4983057;27;97827;-68
2021/11/30 00:27:07;;;;;;;;;;;;;;;10.53;61.30;99887.59;4965823;27;126161;-68
2021/11/30 00:29:34;;;;;;;;;;;;;;;10.54;61.25;99888.41;5000566;27;128539;-59
2021/11/30 00:32:00;;;;;;;;;;;;;;;10.52;61.24;99883.28;5000516;27;98053;-67
2021/11/30 00:34:26;;;;;;;;;;;;;;;10.52;61.08;99885.97;4984301;28;97977;-58
2021/11/30 00:36:52;;;;;;;;;;;;;;;10.52;61.43;99891.38;5001220;27;111740;-58
2021/11/30 00:39:18;;;;;;;;;;;;;;;10.53;61.05;99889.47;4986491;27;98898;-59
2021/11/30 00:41:48;;;;;;;;;;;;;;;10.51;60.75;99900.53;4985586;27;111766;-68
2021/11/30 00:44:16;;;;;;;;;;;;;;;10.51;61.50;99900.53;4988667;27;98251;-67
2021/11/30 00:46:42;;;;;;;;;;;;;;;10.51;60.91;99903.25;5005738;27;98112;-59
2021/11/30 00:49:08;;;;;;;;;;;;;;;10.51;61.10;99910.53;5004688;27;99520;-58
2021/11/30 00:51:39;;;;;;;;;;;;;;;10.51;60.76;99908.63;4985312;27;124124;-58
2021/11/30 00:54:08;;;;;;;;;;;;;;;10.51;61.40;99910.53;5004463;27;97859;-68
2021/11/30 00:56:35;;;;;;;;;;;;;;;10.51;60.82;99915.91;5003448;27;99065;-58
2021/11/30 00:59:01;;;;;;;;;;;;;;;10.49;61.18;99907.28;5004029;27;118483;-58
2021/11/30 01:01:29;;;;;;;;;;;;;;;10.50;61.09;99915.09;5004253;27;118321;-67
2021/11/30 01:03:55;;;;;;;;;;;;;;;10.50;60.92;99904.34;5006465;27;98020;-58
2021/11/30 01:06:20;;;;;;;;;;;;;;;10.49;60.77;99905.41;5004649;27;126344;-67
2021/11/30 01:08:46;;;;;;;;;;;;;;;10.48;61.44;99903.00;5003437;27;127861;-58
2021/11/30 01:11:12;;;;;;;;;;;;;;;10.48;61.17;99911.88;5004250;27;97817;-68
2021/11/30 01:13:38;;;;;;;;;;;;;;;10.47;60.82;99901.38;5004476;27;97848;-67
2021/11/30 01:16:05;;;;;;;;;;;;;;;10.47;61.44;99904.09;5004962;27;98394;-68
2021/11/30 01:18:30;;;;;;;;;;;;;;;10.49;60.94;99904.59;5003075;27;128339;-68
2021/11/30 01:20:56;;;;;;;;;;;;;;;10.48;60.79;99903.00;5003395;27;128329;-67
2021/11/30 01:23:22;;;;;;;;;;;;;;;10.48;60.74;99905.69;5004006;27;113037;-58
2021/11/30 01:25:48;;;;;;;;;;;;;;;10.47;61.03;99902.19;5003238;27;98017;-68
2021/11/30 01:28:14;;;;;;;;;;;;;;;10.48;61.34;99906.50;5003466;27;127993;-58
2021/11/30 01:30:40;;;;;;;;;;;;;;;10.48;60.98;99897.59;5004070;27;127811;-68
2021/11/30 01:33:07;;;;;;;;;;;;;;;10.47;61.24;99896.81;5003907;27;117864;-59
2021/11/30 01:35:33;;;;;;;;;;;;;;;10.46;61.01;99903.28;5003402;27;97721;-58
2021/11/30 01:37:59;;;;;;;;;;;;;;;10.48;61.29;99905.69;5003187;27;128001;-68
2021/11/30 01:40:25;;;;;;;;;;;;;;;10.46;61.28;99908.66;5004392;27;98366;-68
2021/11/30 01:42:52;;;;;;;;;;;;;;;10.46;61.24;99908.66;5004246;27;97791;-58
2021/11/30 01:45:30;;;;;;;;;;;;;;;10.46;61.29;99905.19;5004402;27;98757;-58
2021/11/30 01:50:31;;;;;;;;;;;;;;;10.45;61.37;99898.97;5001146;27;98042;-58
2021/11/30 01:52:58;;;;;;;;;;;;;;;10.45;61.07;99898.16;5004393;27;102787;-58
2021/11/30 01:55:24;;;;;;;;;;;;;;;10.44;61.67;99891.97;5002785;27;123117;-58
2021/11/30 01:57:52;;;;;;;;;;;;;;;10.44;60.54;99888.47;5004370;27;98879;-58
2021/11/30 02:00:18;;;;;;;;;;;;;;;10.43;60.92;99884.16;4968273;27;98773;-58
2021/11/30 02:02:44;;;;;;;;;;;;;;;10.42;60.80;99883.38;4984275;27;98098;-67
2021/11/30 02:05:10;;;;;;;;;;;;;;;10.42;61.12;99885.25;5002904;27;126257;-59
2021/11/30 02:07:37;;;;;;;;;;;;;;;10.40;61.14;99882.84;5001663;27;115476;-67
2021/11/30 02:10:06;;;;;;;;;;;;;;;10.39;60.74;99885.81;5003648;27;97771;-68
2021/11/30 02:12:32;;;;;;;;;;;;;;;10.38;60.88;99876.13;5003198;27;98196;-58
2021/11/30 02:14:58;;;;;;;;;;;;;;;10.36;60.54;99873.69;5002072;27;116715;-58
2021/11/30 02:17:24;;;;;;;;;;;;;;;10.35;61.09;99876.69;5002561;27;128733;-68
2021/11/30 02:19:53;;;;;;;;;;;;;;;10.31;60.89;99871.84;5003278;27;126727;-58
2021/11/30 02:22:19;;;;;;;;;;;;;;;10.31;60.82;99874.53;5003745;27;97783;-59
2021/11/30 02:24:45;;;;;;;;;;;;;;;10.29;61.46;99868.63;5003052;27;98568;-58
2021/11/30 02:27:11;;;;;;;;;;;;;;;10.28;61.19;99863.53;5002782;27;105649;-58
2021/11/30 02:29:37;;;;;;;;;;;;;;;10.27;60.85;99864.63;5002239;27;98720;-58
2021/11/30 02:32:03;;;;;;;;;;;;;;;10.26;60.89;99860.31;4982406;28;98045;-58
2021/11/30 02:34:29;;;;;;;;;;;;;;;10.23;61.15;99858.94;4983455;27;99314;-67
2021/11/30 02:37:03;;;;;;;;;;;;;;;10.23;61.15;99856.25;5001170;27;129443;-58
2021/11/30 02:39:29;;;;;;;;;;;;;;;10.21;60.96;99846.84;4985901;27;98250;-58
2021/11/30 02:41:56;;;;;;;;;;;;;;;10.21;61.18;99847.63;5002608;27;117588;-67
2021/11/30 02:44:22;;;;;;;;;;;;;;;10.19;61.36;99836.34;5002257;27;120970;-58
2021/11/30 02:46:54;;;;;;;;;;;;;;;10.20;61.03;99837.16;4984466;27;98390;-67
2021/11/30 02:49:22;;;;;;;;;;;;;;;10.19;60.37;99832.84;5002950;27;98353;-58
2021/11/30 02:51:51;;;;;;;;;;;;;;;10.19;61.14;99830.97;5004743;27;98008;-58
2021/11/30 02:54:18;;;;;;;;;;;;;;;10.19;60.78;99827.47;5002565;27;98308;-58
2021/11/30 02:56:55;;;;;;;;;;;;;;;10.19;61.07;99824.78;4983351;27;99420;-58
2021/11/30 02:59:22;;;;;;;;;;;;;;;10.18;60.72;99813.19;5003266;27;98112;-67
2021/11/30 03:01:55;;;;;;;;;;;;;;;10.17;61.06;99808.06;5002997;27;108829;-58
2021/11/30 03:04:21;;;;;;;;;;;;;;;10.15;61.04;99808.38;5001764;27;98956;-67
2021/11/30 03:06:47;;;;;;;;;;;;;;;10.14;61.09;99812.16;5001745;27;117571;-58
2021/11/30 03:09:13;;;;;;;;;;;;;;;10.12;60.67;99817.00;5002260;27;117334;-58
2021/11/30 03:11:39;;;;;;;;;;;;;;;10.11;60.53;99809.22;5003275;27;97909;-58
2021/11/30 03:14:05;;;;;;;;;;;;;;;10.09;61.10;99804.88;5002111;27;103911;-58
2021/11/30 03:16:31;;;;;;;;;;;;;;;10.08;61.47;99807.88;4965844;27;128492;-67
2021/11/30 03:18:57;;;;;;;;;;;;;;;10.06;60.99;99797.38;5001585;27;110094;-58
2021/11/30 03:21:28;;;;;;;;;;;;;;;10.05;60.99;99789.56;5002102;27;101564;-67
2021/11/30 03:23:54;;;;;;;;;;;;;;;10.03;60.75;99781.00;5000048;27;128177;-58
2021/11/30 03:26:20;;;;;;;;;;;;;;;10.02;60.80;99771.28;4988041;27;101243;-59
2021/11/30 03:28:45;;;;;;;;;;;;;;;10.02;61.17;99776.66;5001425;27;127792;-67
2021/11/30 03:31:31;;;;;;;;;;;;;;;10.00;61.51;99768.88;4984330;27;118204;-58
2021/11/30 03:34:00;;;;;;;;;;;;;;;9.99;61.30;99753.81;4994163;27;98687;-58
2021/11/30 03:36:27;;;;;;;;;;;;;;;9.97;60.97;99745.19;5001691;27;98523;-58
2021/11/30 03:38:53;;;;;;;;;;;;;;;9.96;60.67;99738.22;4983428;27;98795;-68
2021/11/30 03:41:19;;;;;;;;;;;;;;;9.96;60.65;99732.81;5002544;27;97761;-67
2021/11/30 03:43:45;;;;;;;;;;;;;;;9.94;60.75;99740.41;5001496;27;125067;-58
2021/11/30 03:46:11;;;;;;;;;;;;;;;9.93;60.70;99738.75;5000521;27;129434;-58
2021/11/30 03:48:36;;;;;;;;;;;;;;;9.93;60.66;99738.75;5000882;27;128072;-58
2021/11/30 03:51:03;;;;;;;;;;;;;;;9.91;60.61;99724.78;5002739;27;97791;-67
2021/11/30 03:53:29;;;;;;;;;;;;;;;9.92;61.33;99722.91;5003344;27;98443;-68
2021/11/30 03:55:54;;;;;;;;;;;;;;;9.91;60.18;99715.91;4983409;27;107261;-59
2021/11/30 03:58:20;;;;;;;;;;;;;;;9.90;60.99;99701.63;4982277;27;127227;-58
2021/11/30 04:00:46;;;;;;;;;;;;;;;9.91;61.20;99702.47;4966719;27;107621;-67
2021/11/30 04:03:12;;;;;;;;;;;;;;;9.90;61.11;99703.53;4982932;27;100522;-67
2021/11/30 04:05:38;;;;;;;;;;;;;;;9.89;60.59;99702.72;5002614;27;129456;-59
2021/11/30 04:08:04;;;;;;;;;;;;;;;9.88;60.63;99701.13;5004496;27;127300;-58
2021/11/30 04:10:30;;;;;;;;;;;;;;;9.88;61.26;99700.31;5006405;27;98045;-67
2021/11/30 04:12:56;;;;;;;;;;;;;;;9.87;60.52;99696.84;5005675;27;98981;-58
2021/11/30 04:15:22;;;;;;;;;;;;;;;9.87;60.82;99686.06;5004078;27;125217;-67
2021/11/30 04:17:48;;;;;;;;;;;;;;;9.87;60.08;99677.19;5005312;27;97997;-59
2021/11/30 04:20:14;;;;;;;;;;;;;;;9.84;61.02;99676.66;5004614;27;116974;-67
2021/11/30 04:22:40;;;;;;;;;;;;;;;9.86;60.51;99665.59;5006445;27;98530;-58
2021/11/30 04:25:07;;;;;;;;;;;;;;;9.86;60.84;99656.72;5005327;27;120697;-67
2021/11/30 04:27:33;;;;;;;;;;;;;;;9.86;60.46;99657.50;5004015;27;98197;-58
2021/11/30 04:29:59;;;;;;;;;;;;;;;9.84;60.62;99655.13;5003929;27;118186;-67
2021/11/30 04:32:25;;;;;;;;;;;;;;;9.84;60.56;99641.66;5003749;27;113779;-67
2021/11/30 04:34:51;;;;;;;;;;;;;;;9.86;60.74;99648.63;5004794;27;106546;-58
2021/11/30 04:37:18;;;;;;;;;;;;;;;9.83;60.62;99632.00;5004653;27;105821;-59
2021/11/30 04:39:44;;;;;;;;;;;;;;;9.84;60.59;99632.78;5004630;27;109995;-67
2021/11/30 04:42:09;;;;;;;;;;;;;;;9.84;60.63;99625.50;5002977;27;128200;-58
2021/11/30 04:44:38;;;;;;;;;;;;;;;9.83;60.23;99620.41;5003871;27;127997;-58
2021/11/30 04:47:09;;;;;;;;;;;;;;;9.83;60.74;99615.03;5004348;27;98039;-58
2021/11/30 04:49:42;;;;;;;;;;;;;;;9.83;60.27;99598.88;5006300;27;97811;-59
2021/11/30 04:52:11;;;;;;;;;;;;;;;9.83;60.24;99596.19;5005377;27;97952;-67
2021/11/30 04:54:37;;;;;;;;;;;;;;;9.83;60.19;99597.00;5005098;27;98160;-68
2021/11/30 04:57:04;;;;;;;;;;;;;;;9.84;60.47;99589.72;5004540;27;98035;-58
2021/11/30 04:59:29;;;;;;;;;;;;;;;9.84;60.10;99590.50;5003642;27;97644;-67
2021/11/30 05:01:55;;;;;;;;;;;;;;;9.83;60.49;99585.44;5002091;27;128735;-58
2021/11/30 05:04:21;;;;;;;;;;;;;;;9.84;60.26;99570.88;4986373;27;99107;-59
2021/11/30 05:06:47;;;;;;;;;;;;;;;9.85;60.20;99572.47;4984555;27;97800;-67
2021/11/30 05:09:13;;;;;;;;;;;;;;;9.87;60.13;99574.91;5004199;27;109667;-58
2021/11/30 05:11:39;;;;;;;;;;;;;;;9.87;60.42;99561.44;5004428;27;126991;-68
2021/11/30 05:14:05;;;;;;;;;;;;;;;9.86;60.15;99560.63;5003556;27;125978;-67
2021/11/30 05:16:31;;;;;;;;;;;;;;;9.87;60.27;99550.69;5004101;27;98547;-67
2021/11/30 05:18:57;;;;;;;;;;;;;;;9.88;60.22;99547.69;5003604;27;97882;-67
2021/11/30 05:21:24;;;;;;;;;;;;;;;9.89;60.34;99548.47;5004815;27;120240;-67
2021/11/30 05:23:49;;;;;;;;;;;;;;;9.88;60.51;99552.28;5004504;27;120320;-67
2021/11/30 05:26:15;;;;;;;;;;;;;;;9.89;59.67;99551.97;5002419;27;128233;-58
2021/11/30 05:28:42;;;;;;;;;;;;;;;9.89;60.27;99543.09;5004366;27;115346;-67
2021/11/30 05:31:08;;;;;;;;;;;;;;;9.89;60.73;99537.72;5003847;27;98485;-67
2021/11/30 05:33:34;;;;;;;;;;;;;;;9.87;60.51;99539.91;5004707;27;117078;-58
2021/11/30 05:36:03;;;;;;;;;;;;;;;9.88;59.66;99539.59;5003676;27;127751;-58
2021/11/30 05:38:30;;;;;;;;;;;;;;;9.88;59.79;99542.31;5005206;27;97827;-67
2021/11/30 05:40:56;;;;;;;;;;;;;;;9.88;60.02;99544.19;5007473;27;98585;-58
2021/11/30 05:43:22;;;;;;;;;;;;;;;9.88;59.81;99541.50;5002464;27;98534;-58
2021/11/30 05:45:48;;;;;;;;;;;;;;;9.88;59.98;99530.72;5001328;27;127857;-58
2021/11/30 05:48:14;;;;;;;;;;;;;;;9.88;60.19;99522.66;4983764;27;98102;-58
2021/11/30 05:50:40;;;;;;;;;;;;;;;9.87;59.85;99507.59;4983367;27;110064;-58
2021/11/30 05:53:06;;;;;;;;;;;;;;;9.86;59.66;99525.63;5001729;27;109198;-57
2021/11/30 05:55:32;;;;;;;;;;;;;;;9.86;60.66;99512.16;5000473;27;127083;-58
2021/11/30 05:57:58;;;;;;;;;;;;;;;9.86;60.14;99508.66;4984077;27;97978;-58
2021/11/30 06:00:26;;;;;;;;;;;;;;;9.87;60.08;99494.16;5001365;27;107420;-58
2021/11/30 06:03:04;;;;;;;;;;;;;;;9.85;60.04;99491.72;5001787;27;98911;-58
2021/11/30 06:05:31;;;;;;;;;;;;;;;9.84;60.05;99501.69;5000790;27;98071;-58
2021/11/30 06:07:57;;;;;;;;;;;;;;;9.84;60.41;99496.31;5001435;27;97947;-58
2021/11/30 06:10:23;;;;;;;;;;;;;;;9.82;59.52;99485.03;5001138;27;98178;-58
2021/11/30 06:12:49;;;;;;;;;;;;;;;9.84;59.87;99479.34;4982122;27;120436;-59
2021/11/30 06:15:15;;;;;;;;;;;;;;;9.83;59.80;99481.25;5002119;27;98178;-58
2021/11/30 06:17:41;;;;;;;;;;;;;;;9.83;59.85;99467.78;5000771;27;117720;-58
2021/11/30 06:20:10;;;;;;;;;;;;;;;9.83;59.89;99456.22;5000733;27;113051;-58
2021/11/30 06:22:36;;;;;;;;;;;;;;;9.82;59.74;99450.03;4969789;27;99062;-58
2021/11/30 06:25:03;;;;;;;;;;;;;;;9.81;60.08;99440.34;5001142;27;128679;-59
2021/11/30 06:27:29;;;;;;;;;;;;;;;9.83;60.03;99434.69;5000450;27;97954;-58
2021/11/30 06:29:55;;;;;;;;;;;;;;;9.83;59.75;99429.31;5000663;27;99096;-58
2021/11/30 06:32:21;;;;;;;;;;;;;;;9.82;60.16;99422.31;4999947;27;118681;-59
2021/11/30 06:34:47;;;;;;;;;;;;;;;9.83;59.94;99407.78;5000535;27;98591;-58
2021/11/30 06:37:13;;;;;;;;;;;;;;;9.81;59.81;99407.25;5000531;27;117542;-58
2021/11/30 06:39:39;;;;;;;;;;;;;;;9.82;59.45;99390.00;4998676;27;128179;-58
2021/11/30 06:42:05;;;;;;;;;;;;;;;9.82;60.00;99384.63;4992237;27;129280;-58
2021/11/30 06:44:35;;;;;;;;;;;;;;;9.83;60.23;99395.13;4980527;27;98034;-58
2021/11/30 06:47:02;;;;;;;;;;;;;;;9.83;60.04;99378.97;4998004;27;98056;-58
2021/11/30 06:49:28;;;;;;;;;;;;;;;9.83;59.84;99380.88;4997762;27;98458;-58
2021/11/30 06:51:54;;;;;;;;;;;;;;;9.84;59.93;99377.06;4997413;27;98084;-58
2021/11/30 06:54:20;;;;;;;;;;;;;;;9.84;60.37;99364.41;4996083;27;127555;-58
2021/11/30 06:56:46;;;;;;;;;;;;;;;9.86;59.89;99357.94;4996237;27;119357;-58
2021/11/30 06:59:12;;;;;;;;;;;;;;;9.86;60.39;99349.84;4998187;27;98390;-58
2021/11/30 07:01:38;;;;;;;;;;;;;;;9.87;59.57;99349.59;4978359;27;98908;-58
2021/11/30 07:04:04;;;;;;;;;;;;;;;9.86;59.60;99329.13;4998100;27;98746;-67
2021/11/30 07:14:36;;;;;;;;;;;;;;;9.92;59.40;99311.03;4967790;27;98047;-67
2021/11/30 07:17:02;;;;;;;;;;;;;;;9.93;59.10;99302.66;4999102;27;98085;-58
2021/11/30 07:19:29;;;;;;;;;;;;;;;9.94;59.29;99298.06;4995637;27;117048;-58
2021/11/30 07:21:55;;;;;;;;;;;;;;;9.97;59.86;99294.78;4998920;27;99333;-58
2021/11/30 07:24:21;;;;;;;;;;;;;;;9.98;59.83;99286.44;4998618;27;98179;-67
2021/11/30 07:26:47;;;;;;;;;;;;;;;9.98;59.98;99275.69;4999173;27;98047;-58
2021/11/30 07:29:14;;;;;;;;;;;;;;;9.99;59.87;99277.28;5000142;27;102059;-67
2021/11/30 07:31:42;;;;;;;;;;;;;;;10.00;59.85;99270.00;5000626;27;98482;-68
2021/11/30 07:34:08;;;;;;;;;;;;;;;10.01;59.49;99266.19;4982150;27;98125;-67
2021/11/30 07:36:35;;;;;;;;;;;;;;;10.00;59.41;99257.31;4998644;27;108347;-67
2021/11/30 07:39:01;;;;;;;;;;;;;;;10.00;58.97;99246.56;4999674;27;98588;-67
2021/11/30 07:41:27;;;;;;;;;;;;;;;10.00;59.54;99265.41;5002580;27;98806;-67
2021/11/30 07:43:53;;;;;;;;;;;;;;;10.00;59.32;99253.84;5003119;27;106871;-66
2021/11/30 07:46:19;;;;;;;;;;;;;;;10.01;59.71;99231.19;5003091;27;97738;-67
2021/11/30 07:48:45;;;;;;;;;;;;;;;10.00;59.36;99230.41;5002154;27;98505;-68
2021/11/30 07:51:15;;;;;;;;;;;;;;;10.01;59.93;99228.50;5003382;27;98942;-68
2021/11/30 07:53:42;;;;;;;;;;;;;;;10.00;60.01;99225.03;5003371;27;98466;-67
2021/11/30 07:56:08;;;;;;;;;;;;;;;10.01;59.87;99210.47;5003561;27;98033;-68
2021/11/30 07:58:33;;;;;;;;;;;;;;;10.02;59.47;99204.00;5002680;27;114531;-67
2021/11/30 08:00:59;;;;;;;;;;;;;;;10.02;59.53;99197.78;5001506;27;127991;-67
2021/11/30 08:03:25;;;;;;;;;;;;;;;10.04;59.69;99184.84;5001328;27;128416;-67
2021/11/30 08:05:51;;;;;;;;;;;;;;;10.03;59.60;99178.66;5003681;27;97664;-67
2021/11/30 08:08:17;;;;;;;;;;;;;;;10.03;60.35;99169.81;5002073;27;123389;-67
2021/11/30 08:10:43;;;;;;;;;;;;;;;10.05;59.85;99170.28;4983307;27;129044;-67
2021/11/30 08:13:10;;;;;;;;;;;;;;;10.07;59.56;99160.03;4991110;27;127006;-67
2021/11/30 08:15:37;;;;;;;;;;;;;;;10.07;59.75;99154.66;5001226;27;97828;-67
2021/11/30 08:18:03;;;;;;;;;;;;;;;10.08;59.38;99151.66;5003202;27;99447;-68
2021/11/30 08:20:29;;;;;;;;;;;;;;;10.08;60.10;99142.78;5002311;27;98248;-67
2021/11/30 08:22:55;;;;;;;;;;;;;;;10.07;59.70;99133.13;5001749;27;98551;-67
2021/11/30 08:25:21;;;;;;;;;;;;;;;10.07;59.60;99141.19;4985024;27;97965;-67
2021/11/30 08:27:47;;;;;;;;;;;;;;;10.06;60.13;99124.25;4981510;27;127535;-67
2021/11/30 08:30:13;;;;;;;;;;;;;;;10.06;59.67;99121.56;5003329;27;106694;-67
2021/11/30 08:32:40;;;;;;;;;;;;;;;10.07;60.05;99125.84;5002042;27;126215;-66
2021/11/30 08:35:07;;;;;;;;;;;;;;;10.08;60.06;99107.78;5002591;27;99245;-68
2021/11/30 08:37:33;;;;;;;;;;;;;;;10.12;60.34;99102.59;5001670;27;100239;-67
2021/11/30 08:39:59;;;;;;;;;;;;;;;10.13;60.12;99090.72;5002763;27;98509;-67
2021/11/30 08:42:25;;;;;;;;;;;;;;;10.11;59.94;99098.31;5001058;27;116692;-67
2021/11/30 08:44:52;;;;;;;;;;;;;;;10.12;59.35;99081.84;5001458;27;100116;-67
2021/11/30 08:47:19;;;;;;;;;;;;;;;10.13;60.10;99075.38;5002548;27;98527;-67
2021/11/30 08:49:49;;;;;;;;;;;;;;;10.12;60.26;99078.38;4981163;27;104747;-68
2021/11/30 08:52:18;;;;;;;;;;;;;;;10.14;60.20;99062.69;4996195;27;105189;-66
2021/11/30 08:54:44;;;;;;;;;;;;;;;10.15;60.20;99067.00;5002327;27;97943;-67
2021/11/30 08:57:10;;;;;;;;;;;;;;;10.15;59.70;99051.66;5002234;27;98598;-67
2021/11/30 08:59:38;;;;;;;;;;;;;;;10.15;59.63;99062.41;5001595;27;114156;-67
2021/11/30 09:02:04;;;;;;;;;;;;;;;10.17;59.37;99062.09;5002351;27;98089;-68
2021/11/30 09:04:30;;;;;;;;;;;;;;;10.18;60.11;99055.63;5002260;27;98280;-67
2021/11/30 09:06:56;;;;;;;;;;;;;;;10.17;60.11;99059.41;5002555;27;98966;-68
2021/11/30 09:09:22;;;;;;;;;;;;;;;10.18;59.61;99040.28;5002810;27;98031;-67
2021/11/30 09:11:48;;;;;;;;;;;;;;;10.21;59.38;99042.34;5001621;27;98104;-67
2021/11/30 09:14:19;;;;;;;;;;;;;;;10.22;59.91;99043.19;5002704;27;97909;-67
2021/11/30 09:16:45;;;;;;;;;;;;;;;10.23;60.09;99029.41;5001955;27;98380;-68
2021/11/30 09:19:11;;;;;;;;;;;;;;;10.22;60.23;99035.91;4966409;27;108039;-67
2021/11/30 09:21:37;;;;;;;;;;;;;;;10.21;59.94;99014.63;5001169;27;126816;-68
2021/11/30 09:24:03;;;;;;;;;;;;;;;10.22;60.13;99027.81;5001140;27;117774;-67
2021/11/30 09:26:28;;;;;;;;;;;;;;;10.23;59.60;99015.16;5001176;27;118219;-68
2021/11/30 09:28:54;;;;;;;;;;;;;;;10.21;60.26;99022.72;5002051;27;99158;-68
2021/11/30 09:31:20;;;;;;;;;;;;;;;10.22;60.32;99000.88;5001915;27;97965;-67
2021/11/30 09:33:46;;;;;;;;;;;;;;;10.23;59.65;98986.31;5000921;27;113486;-67
2021/11/30 09:36:13;;;;;;;;;;;;;;;10.22;60.40;99002.78;5001307;27;128004;-67
2021/11/30 09:38:39;;;;;;;;;;;;;;;10.22;59.84;98973.16;4966351;27;99226;-67
2021/11/30 09:41:06;;;;;;;;;;;;;;;10.20;60.08;98972.66;5002808;27;97921;-67
2021/11/30 09:43:32;;;;;;;;;;;;;;;10.20;60.03;98959.19;5001408;27;98124;-68
2021/11/30 09:45:59;;;;;;;;;;;;;;;10.19;60.67;98968.38;5001727;27;98330;-67
2021/11/30 09:48:25;;;;;;;;;;;;;;;10.18;59.70;98964.88;5000166;27;115239;-67
2021/11/30 09:50:51;;;;;;;;;;;;;;;10.20;60.02;98959.97;5001021;27;103666;-67
2021/11/30 09:53:18;;;;;;;;;;;;;;;10.19;60.03;98944.13;5001321;27;117574;-68
2021/11/30 09:55:46;;;;;;;;;;;;;;;10.21;59.98;98941.94;5001521;27;98778;-67
2021/11/30 09:58:12;;;;;;;;;;;;;;;10.23;59.44;98939.75;5000916;27;98989;-67
2021/11/30 10:00:38;;;;;;;;;;;;;;;10.22;60.06;98930.09;5000566;27;116760;-67
2021/11/30 10:03:04;;;;;;;;;;;;;;;10.23;59.80;98927.06;4982944;27;98065;-67
2021/11/30 10:05:30;;;;;;;;;;;;;;;10.24;59.79;98923.28;4999953;27;127520;-67
2021/11/30 10:07:56;;;;;;;;;;;;;;;10.27;59.84;98916.53;5000829;27;99710;-68
2021/11/30 10:10:29;;;;;;;;;;;;;;;10.28;59.99;98904.66;5000810;27;98355;-67
2021/11/30 10:13:11;;;;;;;;;;;;;;;10.28;59.77;98912.72;5002074;27;98018;-66
2021/11/30 10:15:46;;;;;;;;;;;;;;;10.27;59.88;98911.16;4982725;27;98745;-67
2021/11/30 10:18:19;;;;;;;;;;;;;;;10.27;60.11;98911.94;5001284;27;98255;-67
2021/11/30 10:20:46;;;;;;;;;;;;;;;10.29;60.39;98898.16;4983678;27;98206;-67
2021/11/30 10:23:12;;;;;;;;;;;;;;;10.29;59.95;98908.94;5001733;27;97921;-66
2021/11/30 10:25:40;;;;;;;;;;;;;;;10.32;60.17;98900.25;4999373;27;128375;-68
2021/11/30 10:28:08;;;;;;;;;;;;;;;10.31;59.73;98898.66;5000849;27;98908;-67
2021/11/30 10:30:36;;;;;;;;;;;;;;;10.30;59.68;98886.31;5001528;27;98301;-67
2021/11/30 10:33:06;;;;;;;;;;;;;;;10.31;59.49;98871.72;5000952;27;108096;-67
2021/11/30 10:35:32;;;;;;;;;;;;;;;10.31;60.24;98871.72;5000845;27;98999;-67
2021/11/30 10:37:59;;;;;;;;;;;;;;;10.33;59.70;98882.97;5000469;27;108093;-67
2021/11/30 10:40:27;;;;;;;;;;;;;;;10.34;59.99;98864.94;5001064;27;97925;-67
2021/11/30 10:42:57;;;;;;;;;;;;;;;10.33;60.53;98866.81;5000876;27;97878;-68
2021/11/30 10:45:33;;;;;;;;;;;;;;;10.35;60.41;98853.88;4983130;27;107668;-67
2021/11/30 10:48:07;;;;;;;;;;;;;;;10.37;59.70;98853.53;4999530;27;99895;-66
2021/11/30 10:51:01;;;;;;;;;;;;;;;10.36;60.09;98850.06;5001320;27;99232;-67
2021/11/30 10:53:30;;;;;;;;;;;;;;;10.35;60.27;98845.00;5000304;27;104813;-67
2021/11/30 10:55:57;;;;;;;;;;;;;;;10.36;60.45;98849.28;5000958;27;98689;-68
2021/11/30 10:58:26;;;;;;;;;;;;;;;10.34;60.50;98860.34;5000024;27;99165;-69
2021/11/30 11:00:52;;;;;;;;;;;;;;;10.34;60.17;98852.28;5000012;27;98512;-67
2021/11/30 11:03:21;;;;;;;;;;;;;;;10.36;60.54;98850.06;4999135;27;97989;-67
2021/11/30 11:08:55;;;;;;;;;;;;;;;10.38;59.96;98831.72;4994340;27;98160;-67
2021/11/30 11:11:25;;;;;;;;;;;;;;;10.39;60.63;98824.44;4995984;27;98258;-67
2021/11/30 11:13:52;;;;;;;;;;;;;;;10.40;60.50;98836.78;5000680;27;97744;-67
2021/11/30 11:16:37;;;;;;;;;;;;;;;10.39;60.48;98827.91;4999757;27;109878;-67
2021/11/30 11:19:04;;;;;;;;;;;;;;;10.38;60.16;98823.63;5001610;27;98155;-67
2021/11/30 11:21:43;;;;;;;;;;;;;;;10.41;60.71;98827.59;5000476;27;98043;-66
2021/11/30 11:24:25;;;;;;;;;;;;;;;10.43;60.47;98822.72;5000572;27;104081;-67
2021/11/30 11:26:52;;;;;;;;;;;;;;;10.43;60.12;98833.47;4999961;27;98230;-66
2021/11/30 11:29:20;;;;;;;;;;;;;;;10.44;60.16;98833.16;5001645;27;101768;-66
2021/11/30 11:31:51;;;;;;;;;;;;;;;10.45;60.72;98834.78;5001182;27;98000;-66
2021/11/30 11:34:18;;;;;;;;;;;;;;;10.42;60.22;98835.38;5000256;27;100884;-67
2021/11/30 11:36:46;;;;;;;;;;;;;;;10.44;60.64;98838.56;4999832;27;113107;-67
2021/11/30 11:39:14;;;;;;;;;;;;;;;10.45;60.35;98834.78;4999728;27;97894;-67
2021/11/30 11:41:40;;;;;;;;;;;;;;;10.47;60.05;98840.66;4980904;27;99482;-67
2021/11/30 11:44:06;;;;;;;;;;;;;;;10.50;60.23;98840.03;5000046;27;97972;-66
2021/11/30 11:46:34;;;;;;;;;;;;;;;10.52;60.14;98831.63;4998855;27;127998;-67
2021/11/30 11:49:02;;;;;;;;;;;;;;;10.53;60.15;98828.66;4999369;27;117991;-66
2021/11/30 11:51:44;;;;;;;;;;;;;;;10.51;60.55;98825.47;4981835;27;98051;-66
2021/11/30 11:54:31;;;;;;;;;;;;;;;10.51;60.77;98817.38;4999968;27;109076;-66
2021/11/30 11:57:02;;;;;;;;;;;;;;;10.53;60.77;98812.50;4999473;27;98281;-67
2021/11/30 11:59:35;;;;;;;;;;;;;;;10.52;60.51;98810.88;4979116;27;98431;-67
2021/11/30 12:02:21;;;;;;;;;;;;;;;10.53;60.52;98819.75;4995191;27;98559;-66
2021/11/30 12:04:55;;;;;;;;;;;;;;;10.54;60.26;98802.50;5000072;27;98372;-67
2021/11/30 12:07:22;;;;;;;;;;;;;;;10.54;60.55;98795.22;4999401;27;98650;-66
2021/11/30 12:09:48;;;;;;;;;;;;;;;10.54;60.63;98805.22;4999147;27;98377;-58
2021/11/30 12:12:22;;;;;;;;;;;;;;;10.54;60.46;98802.50;4998054;27;98041;-66
2021/11/30 12:14:49;;;;;;;;;;;;;;;10.54;60.58;98800.59;4999656;27;98202;-58
2021/11/30 12:17:25;;;;;;;;;;;;;;;10.54;60.52;98789.84;4996962;27;98628;-57
2021/11/30 12:19:57;;;;;;;;;;;;;;;10.55;60.26;98796.81;5000827;27;98861;-67
2021/11/30 12:22:43;;;;;;;;;;;;;;;10.55;60.81;98793.31;4997655;27;98239;-58
2021/11/30 12:25:32;;;;;;;;;;;;;;;10.56;60.94;98792.22;4998141;27;97825;-67
2021/11/30 12:27:59;;;;;;;;;;;;;;;10.56;60.85;98795.69;5001784;27;98909;-66
2021/11/30 12:30:48;;;;;;;;;;;;;;;10.56;61.03;98792.22;4982214;27;99194;-66
2021/11/30 12:33:22;;;;;;;;;;;;;;;10.56;60.37;98784.91;4999403;27;121422;-67
2021/11/30 12:36:08;;;;;;;;;;;;;;;10.56;61.18;98798.38;5001147;27;97890;-58
2021/11/30 12:38:56;;;;;;;;;;;;;;;10.56;60.95;98798.38;4996108;27;98349;-58
2021/11/30 12:41:38;;;;;;;;;;;;;;;10.57;60.54;98791.91;4979253;27;100607;-67
2021/11/30 12:44:11;;;;;;;;;;;;;;;10.61;61.01;98781.31;4995719;27;97888;-66
2021/11/30 12:46:38;;;;;;;;;;;;;;;10.61;61.01;98785.88;4999510;27;98026;-58
2021/11/30 12:49:23;;;;;;;;;;;;;;;10.61;60.48;98783.19;5000287;27;105185;-60
2021/11/30 12:52:04;;;;;;;;;;;;;;;10.60;60.59;98785.09;5001358;27;98879;-66
2021/11/30 12:54:30;;;;;;;;;;;;;;;10.60;60.80;98784.31;4985027;27;98575;-57
2021/11/30 12:56:57;;;;;;;;;;;;;;;10.60;60.76;98782.41;5001143;27;117861;-58
2021/11/30 12:59:41;;;;;;;;;;;;;;;10.62;60.74;98779.41;5000859;27;98551;-58
2021/11/30 13:02:35;;;;;;;;;;;;;;;10.62;60.83;98774.03;4999529;27;98278;-58
2021/11/30 13:05:11;;;;;;;;;;;;;;;10.61;60.65;98773.25;4998757;27;98125;-58